Time,TemperatureF,DewpointF,PressureIn,WindDirection,WindDirectionDegrees,WindSpeedMPH,WindSpeedGustMPH,Humidity,HourlyPrecipIn,Conditions,Clouds,dailyrainin,SolarRadiationWatts/m^2,SoftwareType,DateUTC
2013-12-25 00:02:00,9.0,-5.0,30.17,WSW,245,0.0,2.0,53,0.00,,,0.00,0,weatherlink.com 1.10,2013-12-25 07:02:00,
2013-12-25 00:17:00,9.4,-6.0,30.18,WSW,245,0.0,2.0,51,0.00,,,0.00,0,weatherlink.com 1.10,2013-12-25 07:17:00,
2013-12-25 00:32:00,9.9,-6.0,30.16,WSW,246,0.0,3.0,49,0.00,,,0.00,0,weatherlink.com 1.10,2013-12-25 07:32:00,
2013-12-25 00:47:00,10.0,-7.0,30.17,WSW,246,0.0,2.0,47,0.00,,,0.00,0,weatherlink.com 1.10,2013-12-25 07:47:00,
2013-12-25 01:02:00,10.2,-7.0,30.16,West,268,2.0,5.0,45,0.00,,,0.00,0,weatherlink.com 1.10,2013-12-25 08:02:00,
2013-12-25 01:17:00,9.6,-8.0,30.16,West,281,3.0,5.0,45,0.00,,,0.00,0,weatherlink.com 1.10,2013-12-25 08:17:00,
2013-12-25 01:32:00,8.9,-10.0,30.16,WSW,246,2.0,5.0,43,0.00,,,0.00,0,weatherlink.com 1.10,2013-12-25 08:32:00,
2013-12-25 01:47:00,10.3,-9.0,30.17,West,260,6.0,8.0,41,0.00,,,0.00,0,weatherlink.com 1.10,2013-12-25 08:47:00,
2013-12-25 02:03:00,10.5,-9.0,30.18,WNW,286,5.0,14.0,41,0.00,,,0.00,0,weatherlink.com 1.10,2013-12-25 09:03:00,
2013-12-25 02:18:00,10.5,-9.0,30.19,WSW,254,6.0,13.0,42,0.00,,,0.00,0,weatherlink.com 1.10,2013-12-25 09:18:00,
2013-12-25 02:33:00,11.0,-9.0,30.19,WNW,288,6.0,10.0,40,0.00,,,0.00,0,weatherlink.com 1.10,2013-12-25 09:33:00,
2013-12-25 02:48:00,11.2,-9.0,30.19,West,261,2.0,10.0,39,0.00,,,0.00,0,weatherlink.com 1.10,2013-12-25 09:48:00,
2013-12-25 03:03:00,11.3,-9.0,30.20,WNW,302,2.0,7.0,39,0.00,,,0.00,0,weatherlink.com 1.10,2013-12-25 10:03:00,
2013-12-25 03:18:00,10.5,-10.0,30.20,WNW,299,0.0,8.0,39,0.00,,,0.00,0,weatherlink.com 1.10,2013-12-25 10:18:00,
2013-12-25 03:33:00,11.0,-9.0,30.20,WSW,240,5.0,12.0,40,0.00,,,0.00,0,weatherlink.com 1.10,2013-12-25 10:33:00,
2013-12-25 03:48:00,11.7,-9.0,30.20,West,275,2.0,14.0,38,0.00,,,0.00,0,weatherlink.com 1.10,2013-12-25 10:48:00,
2013-12-25 04:03:00,11.6,-10.0,30.20,WNW,298,1.0,9.0,38,0.00,,,0.00,0,weatherlink.com 1.10,2013-12-25 11:03:00,
2013-12-25 04:18:00,11.9,-10.0,30.21,WSW,238,0.0,6.0,36,0.00,,,0.00,0,weatherlink.com 1.10,2013-12-25 11:18:00,
2013-12-25 04:33:00,11.2,-11.0,30.21,West,274,4.0,8.0,36,0.00,,,0.00,0,weatherlink.com 1.10,2013-12-25 11:33:00,
2013-12-25 04:48:00,11.7,-11.0,30.22,NW,313,2.0,10.0,35,0.00,,,0.00,0,weatherlink.com 1.10,2013-12-25 11:48:00,
2013-12-25 05:03:00,11.2,-10.0,30.23,West,264,1.0,5.0,37,0.00,,,0.00,0,weatherlink.com 1.10,2013-12-25 12:03:00,
2013-12-25 05:19:00,10.4,-11.0,30.25,West,267,0.0,3.0,37,0.00,,,0.00,0,weatherlink.com 1.10,2013-12-25 12:19:00,
2013-12-25 05:34:00,10.2,-12.0,30.25,NNW,346,0.0,2.0,35,0.00,,,0.00,0,weatherlink.com 1.10,2013-12-25 12:34:00,
2013-12-25 05:49:00,10.4,-12.0,30.25,West,269,3.0,4.0,36,0.00,,,0.00,0,weatherlink.com 1.10,2013-12-25 12:49:00,
2013-12-25 06:04:00,10.5,-11.0,30.25,West,269,0.0,3.0,37,0.00,,,0.00,0,weatherlink.com 1.10,2013-12-25 13:04:00,
2013-12-25 06:19:00,9.0,-11.0,30.25,West,269,0.0,1.0,39,0.00,,,0.00,0,weatherlink.com 1.10,2013-12-25 13:19:00,
2013-12-25 06:34:00,8.0,-9.0,30.25,West,273,0.0,2.0,46,0.00,,,0.00,0,weatherlink.com 1.10,2013-12-25 13:34:00,
2013-12-25 06:49:00,6.5,-12.0,30.28,SE,126,2.0,6.0,42,0.00,,,0.00,0,weatherlink.com 1.10,2013-12-25 13:49:00,
2013-12-25 07:04:00,7.6,-9.0,30.28,West,281,0.0,3.0,47,0.00,,,0.00,0,weatherlink.com 1.10,2013-12-25 14:04:00,
2013-12-25 07:19:00,6.9,-10.0,30.30,West,281,0.0,2.0,46,0.00,,,0.00,0,weatherlink.com 1.10,2013-12-25 14:19:00,
2013-12-25 07:34:00,7.4,-9.0,30.30,NNW,337,0.0,2.0,46,0.00,,,0.00,9,weatherlink.com 1.10,2013-12-25 14:34:00,
2013-12-25 07:49:00,10.2,-7.0,30.31,NNW,337,0.0,0.0,45,0.00,,,0.00,42,weatherlink.com 1.10,2013-12-25 14:49:00,
2013-12-25 08:04:00,11.4,-9.0,30.33,NNW,341,1.0,2.0,40,0.00,,,0.00,84,weatherlink.com 1.10,2013-12-25 15:04:00,
2013-12-25 08:19:00,11.5,-8.0,30.34,North,351,0.0,2.0,42,0.00,,,0.00,130,weatherlink.com 1.10,2013-12-25 15:19:00,
2013-12-25 08:34:00,14.6,-6.0,30.34,North,351,0.0,1.0,39,0.00,,,0.00,171,weatherlink.com 1.10,2013-12-25 15:34:00,
2013-12-25 08:50:00,16.8,-6.0,30.35,North,351,0.0,1.0,36,0.00,,,0.00,213,weatherlink.com 1.10,2013-12-25 15:50:00,
2013-12-25 09:05:00,17.4,-6.0,30.36,North,351,1.0,2.0,35,0.00,,,0.00,253,weatherlink.com 1.10,2013-12-25 16:05:00,
2013-12-25 09:20:00,17.8,-6.0,30.37,NW,315,2.0,3.0,34,0.00,,,0.00,292,weatherlink.com 1.10,2013-12-25 16:20:00,
2013-12-25 09:35:00,18.1,-5.0,30.39,NW,311,1.0,2.0,35,0.00,,,0.00,330,weatherlink.com 1.10,2013-12-25 16:35:00,
2013-12-25 09:50:00,19.3,-6.0,30.40,WSW,254,0.0,6.0,32,0.00,,,0.00,364,weatherlink.com 1.10,2013-12-25 16:50:00,
2013-12-25 10:05:00,19.9,-4.0,30.39,SSW,199,0.0,5.0,34,0.00,,,0.00,399,weatherlink.com 1.10,2013-12-25 17:05:00,
2013-12-25 10:20:00,20.0,-5.0,30.39,WSW,257,3.0,8.0,33,0.00,,,0.00,429,weatherlink.com 1.10,2013-12-25 17:20:00,
2013-12-25 10:35:00,21.3,-5.0,30.39,West,279,1.0,7.0,31,0.00,,,0.00,454,weatherlink.com 1.10,2013-12-25 17:35:00,
2013-12-25 10:50:00,22.8,-3.0,30.39,WSW,257,2.0,4.0,32,0.00,,,0.00,480,weatherlink.com 1.10,2013-12-25 17:50:00,
2013-12-25 11:05:00,24.1,-4.0,30.39,WSW,252,2.0,6.0,29,0.00,,,0.00,503,weatherlink.com 1.10,2013-12-25 18:05:00,
2013-12-25 11:20:00,24.4,-4.0,30.39,WSW,245,4.0,7.0,29,0.00,,,0.00,519,weatherlink.com 1.10,2013-12-25 18:20:00,
2013-12-25 11:35:00,24.8,-3.0,30.38,West,277,6.0,6.0,30,0.00,,,0.00,531,weatherlink.com 1.10,2013-12-25 18:35:00,
2013-12-25 11:50:00,24.8,-3.0,30.37,West,269,5.0,9.0,30,0.00,,,0.00,540,weatherlink.com 1.10,2013-12-25 18:50:00,
2013-12-25 12:05:00,26.0,-2.0,30.36,NW,304,2.0,9.0,30,0.00,,,0.00,545,weatherlink.com 1.10,2013-12-25 19:05:00,
2013-12-25 12:21:00,26.8,0.0,30.36,West,265,1.0,6.0,31,0.00,,,0.00,547,weatherlink.com 1.10,2013-12-25 19:21:00,
2013-12-25 12:36:00,27.3,-1.0,30.35,WSW,257,3.0,6.0,30,0.00,,,0.00,541,weatherlink.com 1.10,2013-12-25 19:36:00,
2013-12-25 12:51:00,28.0,-1.0,30.35,West,272,3.0,9.0,29,0.00,,,0.00,534,weatherlink.com 1.10,2013-12-25 19:51:00,
2013-12-25 13:06:00,28.3,2.0,30.36,West,261,2.0,7.0,32,0.00,,,0.00,524,weatherlink.com 1.10,2013-12-25 20:06:00,
2013-12-25 13:21:00,28.8,2.0,30.36,WSW,258,1.0,5.0,31,0.00,,,0.00,508,weatherlink.com 1.10,2013-12-25 20:21:00,
2013-12-25 13:36:00,28.9,2.0,30.35,WNW,300,1.0,8.0,31,0.00,,,0.00,278,weatherlink.com 1.10,2013-12-25 20:36:00,
2013-12-25 13:51:00,27.9,3.0,30.35,SW,227,4.0,4.0,34,0.00,,,0.00,149,weatherlink.com 1.10,2013-12-25 20:51:00,
2013-12-25 14:06:00,28.7,5.0,30.35,NW,315,0.0,2.0,36,0.00,,,0.00,439,weatherlink.com 1.10,2013-12-25 21:06:00,
2013-12-25 14:21:00,28.7,4.0,30.36,NW,317,0.0,4.0,34,0.00,,,0.00,334,weatherlink.com 1.10,2013-12-25 21:21:00,
2013-12-25 14:36:00,27.5,3.0,30.37,NNW,327,0.0,5.0,35,0.00,,,0.00,40,weatherlink.com 1.10,2013-12-25 21:36:00,
2013-12-25 14:51:00,27.1,3.0,30.37,West,260,1.0,2.0,35,0.00,,,0.00,33,weatherlink.com 1.10,2013-12-25 21:51:00,
2013-12-25 15:06:00,27.5,2.0,30.36,WSW,255,2.0,5.0,34,0.00,,,0.00,47,weatherlink.com 1.10,2013-12-25 22:06:00,
2013-12-25 15:21:00,27.5,2.0,30.37,West,273,0.0,4.0,34,0.00,,,0.00,21,weatherlink.com 1.10,2013-12-25 22:21:00,
2013-12-25 15:36:00,27.2,3.0,30.38,West,273,0.0,2.0,36,0.00,,,0.00,47,weatherlink.com 1.10,2013-12-25 22:36:00,
2013-12-25 15:52:00,26.5,2.0,30.38,West,273,0.0,3.0,34,0.00,,,0.00,28,weatherlink.com 1.10,2013-12-25 22:52:00,
2013-12-25 16:07:00,26.1,1.0,30.38,West,273,0.0,1.0,34,0.00,,,0.00,14,weatherlink.com 1.10,2013-12-25 23:07:00,
2013-12-25 16:22:00,25.5,1.0,30.38,West,273,0.0,1.0,34,0.00,,,0.00,11,weatherlink.com 1.10,2013-12-25 23:22:00,
2013-12-25 16:37:00,24.8,0.0,30.37,West,273,0.0,0.0,34,0.00,,,0.00,7,weatherlink.com 1.10,2013-12-25 23:37:00,
2013-12-25 16:52:00,24.2,-1.0,30.37,West,273,0.0,0.0,33,0.00,,,0.00,0,weatherlink.com 1.10,2013-12-25 23:52:00,
2013-12-25 17:07:00,23.4,-1.0,30.38,West,273,0.0,0.0,34,0.00,,,0.00,0,weatherlink.com 1.10,2013-12-26 00:07:00,
2013-12-25 17:22:00,23.1,-1.0,30.38,West,273,0.0,0.0,35,0.00,,,0.00,0,weatherlink.com 1.10,2013-12-26 00:22:00,
2013-12-25 17:37:00,23.0,-1.0,30.38,West,273,0.0,1.0,35,0.00,,,0.00,0,weatherlink.com 1.10,2013-12-26 00:37:00,
2013-12-25 17:52:00,22.7,-1.0,30.38,West,273,0.0,0.0,35,0.00,,,0.00,0,weatherlink.com 1.10,2013-12-26 00:52:00,
2013-12-25 18:07:00,22.6,-1.0,30.38,West,273,0.0,2.0,35,0.00,,,0.00,0,weatherlink.com 1.10,2013-12-26 01:07:00,
2013-12-25 18:22:00,22.1,-1.0,30.38,West,273,0.0,0.0,36,0.00,,,0.00,0,weatherlink.com 1.10,2013-12-26 01:22:00,
2013-12-25 18:37:00,22.1,-1.0,30.39,West,273,0.0,1.0,36,0.00,,,0.00,0,weatherlink.com 1.10,2013-12-26 01:37:00,
2013-12-25 18:52:00,20.8,-1.0,30.39,West,273,0.0,3.0,39,0.00,,,0.00,0,weatherlink.com 1.10,2013-12-26 01:52:00,
2013-12-25 19:08:00,20.9,1.0,30.39,West,273,0.0,2.0,42,0.00,,,0.00,0,weatherlink.com 1.10,2013-12-26 02:08:00,
2013-12-25 19:23:00,20.9,1.0,30.39,WNW,283,0.0,4.0,42,0.00,,,0.00,0,weatherlink.com 1.10,2013-12-26 02:23:00,
2013-12-25 19:38:00,20.3,1.0,30.40,WSW,248,0.0,5.0,43,0.00,,,0.00,0,weatherlink.com 1.10,2013-12-26 02:38:00,
2013-12-25 19:53:00,19.8,2.0,30.41,WSW,256,2.0,9.0,45,0.00,,,0.00,0,weatherlink.com 1.10,2013-12-26 02:53:00,
2013-12-25 20:08:00,19.8,1.0,30.40,WSW,256,1.0,8.0,44,0.00,,,0.00,0,weatherlink.com 1.10,2013-12-26 03:08:00,
2013-12-25 20:23:00,19.8,1.0,30.39,WSW,252,3.0,5.0,44,0.00,,,0.00,0,weatherlink.com 1.10,2013-12-26 03:23:00,
2013-12-25 20:38:00,20.0,1.0,30.39,West,272,3.0,4.0,44,0.00,,,0.00,0,weatherlink.com 1.10,2013-12-26 03:38:00,
2013-12-25 20:53:00,20.2,1.0,30.38,WSW,258,0.0,5.0,43,0.00,,,0.00,0,weatherlink.com 1.10,2013-12-26 03:53:00,
2013-12-25 21:08:00,20.0,1.0,30.38,West,259,0.0,1.0,43,0.00,,,0.00,0,weatherlink.com 1.10,2013-12-26 04:08:00,
2013-12-25 21:23:00,20.1,1.0,30.38,West,259,0.0,2.0,43,0.00,,,0.00,0,weatherlink.com 1.10,2013-12-26 04:23:00,
2013-12-25 21:38:00,20.4,1.0,30.38,West,259,0.0,1.0,42,0.00,,,0.00,0,weatherlink.com 1.10,2013-12-26 04:38:00,
2013-12-25 21:53:00,20.1,0.0,30.38,WSW,245,0.0,2.0,42,0.00,,,0.00,0,weatherlink.com 1.10,2013-12-26 04:53:00,
2013-12-25 22:08:00,19.8,0.0,30.37,SSW,192,0.0,3.0,42,0.00,,,0.00,0,weatherlink.com 1.10,2013-12-26 05:08:00,
2013-12-25 22:23:00,20.9,0.0,30.37,SSW,192,1.0,2.0,40,0.00,,,0.00,0,weatherlink.com 1.10,2013-12-26 05:23:00,
2013-12-25 22:39:00,21.4,0.0,30.36,SSW,192,0.0,1.0,39,0.00,,,0.00,0,weatherlink.com 1.10,2013-12-26 05:39:00,
2013-12-25 22:54:00,21.8,0.0,30.36,SW,235,2.0,2.0,38,0.00,,,0.00,0,weatherlink.com 1.10,2013-12-26 05:54:00,
2013-12-25 23:09:00,22.6,0.0,30.35,West,280,0.0,4.0,37,0.00,,,0.00,0,weatherlink.com 1.10,2013-12-26 06:09:00,
2013-12-25 23:24:00,23.2,0.0,30.35,West,264,0.0,5.0,36,0.00,,,0.00,0,weatherlink.com 1.10,2013-12-26 06:24:00,
2013-12-25 23:39:00,23.4,0.0,30.34,WSW,254,5.0,8.0,36,0.00,,,0.00,0,weatherlink.com 1.10,2013-12-26 06:39:00,
2013-12-25 23:54:00,23.3,0.0,30.33,WNW,294,1.0,5.0,36,0.00,,,0.00,0,weatherlink.com 1.10,2013-12-26 06:54:00,